sensor_id;sensor_type;location;lat;lon;timestamp;temperature;humidity
45807;DHT22;31507;51.494;7.518;2023-02-22T00:01:51;6.50;99.90
45807;DHT22;31507;51.494;7.518;2023-02-22T00:04:37;6.50;99.90
45807;DHT22;31507;51.494;7.518;2023-02-22T00:07:06;6.50;99.90
45807;DHT22;31507;51.494;7.518;2023-02-22T00:09:32;6.50;99.90
45807;DHT22;31507;51.494;7.518;2023-02-22T00:11:57;6.50;99.90
45807;DHT22;31507;51.494;7.518;2023-02-22T00:14:23;6.50;99.90
45807;DHT22;31507;51.494;7.518;2023-02-22T00:16:52;6.50;99.90
45807;DHT22;31507;51.494;7.518;2023-02-22T00:19:17;6.50;99.90
45807;DHT22;31507;51.494;7.518;2023-02-22T00:21:43;6.40;99.90
45807;DHT22;31507;51.494;7.518;2023-02-22T00:24:09;6.40;99.90
45807;DHT22;31507;51.494;7.518;2023-02-22T00:26:56;6.40;99.90
45807;DHT22;31507;51.494;7.518;2023-02-22T00:29:22;6.40;99.90
45807;DHT22;31507;51.494;7.518;2023-02-22T00:31:48;6.40;99.90
45807;DHT22;31507;51.494;7.518;2023-02-22T00:34:13;6.40;99.90
45807;DHT22;31507;51.494;7.518;2023-02-22T00:36:43;6.30;99.90
45807;DHT22;31507;51.494;7.518;2023-02-22T00:39:09;6.30;99.90
45807;DHT22;31507;51.494;7.518;2023-02-22T00:41:34;6.30;99.90
45807;DHT22;31507;51.494;7.518;2023-02-22T00:44:00;6.30;99.90
45807;DHT22;31507;51.494;7.518;2023-02-22T00:46:25;6.30;99.90
45807;DHT22;31507;51.494;7.518;2023-02-22T00:48:51;6.30;99.90
45807;DHT22;31507;51.494;7.518;2023-02-22T00:51:16;6.20;99.90
45807;DHT22;31507;51.494;7.518;2023-02-22T00:53:42;6.30;99.90
45807;DHT22;31507;51.494;7.518;2023-02-22T00:56:07;6.20;99.90
45807;DHT22;31507;51.494;7.518;2023-02-22T00:58:33;6.20;99.90
45807;DHT22;31507;51.494;7.518;2023-02-22T01:00:58;6.20;99.90
45807;DHT22;31507;51.494;7.518;2023-02-22T01:03:24;6.20;99.90
45807;DHT22;31507;51.494;7.518;2023-02-22T01:05:49;6.20;99.90
45807;DHT22;31507;51.494;7.518;2023-02-22T01:08:15;6.20;99.90
45807;DHT22;31507;51.494;7.518;2023-02-22T01:10:41;6.20;99.90
45807;DHT22;31507;51.494;7.518;2023-02-22T01:13:07;6.20;99.90
45807;DHT22;31507;51.494;7.518;2023-02-22T01:15:34;6.10;99.90
45807;DHT22;31507;51.494;7.518;2023-02-22T01:18:01;6.20;99.90
45807;DHT22;31507;51.494;7.518;2023-02-22T01:20:27;6.10;99.90
45807;DHT22;31507;51.494;7.518;2023-02-22T01:22:54;6.10;99.90
45807;DHT22;31507;51.494;7.518;2023-02-22T01:25:21;6.10;99.90
45807;DHT22;31507;51.494;7.518;2023-02-22T01:27:47;6.10;99.90
45807;DHT22;31507;51.494;7.518;2023-02-22T01:30:14;6.10;99.90
45807;DHT22;31507;51.494;7.518;2023-02-22T01:32:41;6.10;99.90
45807;DHT22;31507;51.494;7.518;2023-02-22T01:35:08;6.00;99.90
45807;DHT22;31507;51.494;7.518;2023-02-22T01:37:35;6.00;99.90
45807;DHT22;31507;51.494;7.518;2023-02-22T01:40:00;6.00;99.90
45807;DHT22;31507;51.494;7.518;2023-02-22T01:42:26;6.00;99.90
45807;DHT22;31507;51.494;7.518;2023-02-22T01:47:37;5.90;99.90
45807;DHT22;31507;51.494;7.518;2023-02-22T01:50:03;5.80;99.90
45807;DHT22;31507;51.494;7.518;2023-02-22T01:52:28;5.80;99.90
45807;DHT22;31507;51.494;7.518;2023-02-22T01:54:54;5.80;99.90
45807;DHT22;31507;51.494;7.518;2023-02-22T01:57:22;5.70;99.90
45807;DHT22;31507;51.494;7.518;2023-02-22T01:59:54;5.70;99.90
45807;DHT22;31507;51.494;7.518;2023-02-22T02:02:21;5.60;99.90
45807;DHT22;31507;51.494;7.518;2023-02-22T02:04:50;5.50;99.90
45807;DHT22;31507;51.494;7.518;2023-02-22T02:07:16;5.50;99.90
45807;DHT22;31507;51.494;7.518;2023-02-22T02:09:45;5.50;99.90
45807;DHT22;31507;51.494;7.518;2023-02-22T02:12:11;5.40;99.90
45807;DHT22;31507;51.494;7.518;2023-02-22T02:14:39;5.40;99.90
45807;DHT22;31507;51.494;7.518;2023-02-22T02:17:08;5.30;99.90
45807;DHT22;31507;51.494;7.518;2023-02-22T02:19:51;5.30;99.90
45807;DHT22;31507;51.494;7.518;2023-02-22T02:22:24;5.20;99.90
45807;DHT22;31507;51.494;7.518;2023-02-22T02:27:44;5.20;99.90
45807;DHT22;31507;51.494;7.518;2023-02-22T02:30:21;5.20;99.90
45807;DHT22;31507;51.494;7.518;2023-02-22T02:33:07;5.20;99.90
45807;DHT22;31507;51.494;7.518;2023-02-22T02:35:37;5.20;99.90
45807;DHT22;31507;51.494;7.518;2023-02-22T02:43:11;4.90;99.90
45807;DHT22;31507;51.494;7.518;2023-02-22T02:48:05;4.80;99.90
45807;DHT22;31507;51.494;7.518;2023-02-22T02:50:36;4.70;99.90
45807;DHT22;31507;51.494;7.518;2023-02-22T02:53:03;4.70;99.90
45807;DHT22;31507;51.494;7.518;2023-02-22T02:55:30;4.70;99.90
45807;DHT22;31507;51.494;7.518;2023-02-22T02:57:56;4.60;99.90
45807;DHT22;31507;51.494;7.518;2023-02-22T03:00:22;4.60;99.90
45807;DHT22;31507;51.494;7.518;2023-02-22T03:07:52;4.50;99.90
45807;DHT22;31507;51.494;7.518;2023-02-22T03:13:08;4.40;99.90
45807;DHT22;31507;51.494;7.518;2023-02-22T03:15:45;4.40;99.90
45807;DHT22;31507;51.494;7.518;2023-02-22T03:18:23;4.30;99.90
45807;DHT22;31507;51.494;7.518;2023-02-22T03:20:54;4.30;99.90
45807;DHT22;31507;51.494;7.518;2023-02-22T03:23:32;4.30;99.90
45807;DHT22;31507;51.494;7.518;2023-02-22T03:26:03;4.20;99.90
45807;DHT22;31507;51.494;7.518;2023-02-22T03:28:30;4.20;99.90
45807;DHT22;31507;51.494;7.518;2023-02-22T03:30:59;4.10;99.90
45807;DHT22;31507;51.494;7.518;2023-02-22T03:33:31;4.10;99.90
45807;DHT22;31507;51.494;7.518;2023-02-22T03:36:14;4.10;99.90
45807;DHT22;31507;51.494;7.518;2023-02-22T03:38:41;4.10;99.90
45807;DHT22;31507;51.494;7.518;2023-02-22T03:41:08;4.00;99.90
45807;DHT22;31507;51.494;7.518;2023-02-22T03:43:39;4.00;99.90
45807;DHT22;31507;51.494;7.518;2023-02-22T03:46:07;4.00;99.90
45807;DHT22;31507;51.494;7.518;2023-02-22T03:48:50;4.00;99.90
45807;DHT22;31507;51.494;7.518;2023-02-22T03:51:18;3.90;99.90
45807;DHT22;31507;51.494;7.518;2023-02-22T03:53:45;3.90;99.90
45807;DHT22;31507;51.494;7.518;2023-02-22T03:56:14;3.90;99.90
45807;DHT22;31507;51.494;7.518;2023-02-22T03:58:41;3.90;99.90
45807;DHT22;31507;51.494;7.518;2023-02-22T04:01:08;3.80;99.90
45807;DHT22;31507;51.494;7.518;2023-02-22T04:03:34;3.80;99.90
45807;DHT22;31507;51.494;7.518;2023-02-22T04:05:59;3.80;99.90
45807;DHT22;31507;51.494;7.518;2023-02-22T04:08:25;3.70;99.90
45807;DHT22;31507;51.494;7.518;2023-02-22T04:10:50;3.70;99.90
45807;DHT22;31507;51.494;7.518;2023-02-22T04:13:16;3.70;99.90
45807;DHT22;31507;51.494;7.518;2023-02-22T04:15:41;3.60;99.90
45807;DHT22;31507;51.494;7.518;2023-02-22T04:18:07;3.60;99.90
45807;DHT22;31507;51.494;7.518;2023-02-22T04:20:32;3.60;99.90
45807;DHT22;31507;51.494;7.518;2023-02-22T04:22:59;3.50;99.90
45807;DHT22;31507;51.494;7.518;2023-02-22T04:25:24;3.50;99.90
45807;DHT22;31507;51.494;7.518;2023-02-22T04:27:50;3.40;99.90
45807;DHT22;31507;51.494;7.518;2023-02-22T04:30:16;3.30;99.90
45807;DHT22;31507;51.494;7.518;2023-02-22T04:32:42;3.30;99.90
45807;DHT22;31507;51.494;7.518;2023-02-22T04:35:08;3.20;99.90
45807;DHT22;31507;51.494;7.518;2023-02-22T04:37:33;3.20;99.90
45807;DHT22;31507;51.494;7.518;2023-02-22T04:39:59;3.10;99.90
45807;DHT22;31507;51.494;7.518;2023-02-22T04:42:25;3.10;99.90
45807;DHT22;31507;51.494;7.518;2023-02-22T04:44:50;3.00;99.90
45807;DHT22;31507;51.494;7.518;2023-02-22T04:47:16;3.00;99.90
45807;DHT22;31507;51.494;7.518;2023-02-22T04:49:41;3.00;99.90
45807;DHT22;31507;51.494;7.518;2023-02-22T04:52:07;3.00;99.90
45807;DHT22;31507;51.494;7.518;2023-02-22T04:54:32;2.90;99.90
45807;DHT22;31507;51.494;7.518;2023-02-22T04:56:58;2.90;99.90
45807;DHT22;31507;51.494;7.518;2023-02-22T04:59:23;2.80;99.90
45807;DHT22;31507;51.494;7.518;2023-02-22T05:01:49;2.80;99.90
45807;DHT22;31507;51.494;7.518;2023-02-22T05:04:14;2.70;99.90
45807;DHT22;31507;51.494;7.518;2023-02-22T05:06:40;2.70;99.90
45807;DHT22;31507;51.494;7.518;2023-02-22T05:09:06;2.70;99.90
45807;DHT22;31507;51.494;7.518;2023-02-22T05:11:31;2.60;99.90
45807;DHT22;31507;51.494;7.518;2023-02-22T05:13:57;2.60;99.90
45807;DHT22;31507;51.494;7.518;2023-02-22T05:16:22;2.60;99.90
45807;DHT22;31507;51.494;7.518;2023-02-22T05:18:48;2.50;99.90
45807;DHT22;31507;51.494;7.518;2023-02-22T05:21:13;2.40;99.90
45807;DHT22;31507;51.494;7.518;2023-02-22T05:23:39;2.40;99.90
45807;DHT22;31507;51.494;7.518;2023-02-22T05:26:04;2.30;99.90
45807;DHT22;31507;51.494;7.518;2023-02-22T05:28:30;2.30;99.90
45807;DHT22;31507;51.494;7.518;2023-02-22T05:30:56;2.20;99.90
45807;DHT22;31507;51.494;7.518;2023-02-22T05:33:22;2.20;99.90
45807;DHT22;31507;51.494;7.518;2023-02-22T05:35:47;2.20;99.90
45807;DHT22;31507;51.494;7.518;2023-02-22T05:38:13;2.20;99.90
45807;DHT22;31507;51.494;7.518;2023-02-22T05:40:39;2.30;99.90
45807;DHT22;31507;51.494;7.518;2023-02-22T05:43:05;2.20;99.90
45807;DHT22;31507;51.494;7.518;2023-02-22T05:45:31;2.30;99.90
45807;DHT22;31507;51.494;7.518;2023-02-22T05:47:56;2.30;99.90
45807;DHT22;31507;51.494;7.518;2023-02-22T05:50:22;2.30;99.90
45807;DHT22;31507;51.494;7.518;2023-02-22T05:52:48;2.20;99.90
45807;DHT22;31507;51.494;7.518;2023-02-22T05:55:15;2.30;99.90
45807;DHT22;31507;51.494;7.518;2023-02-22T05:57:41;2.20;99.90
45807;DHT22;31507;51.494;7.518;2023-02-22T06:00:07;2.20;99.90
45807;DHT22;31507;51.494;7.518;2023-02-22T06:02:33;2.20;99.90
45807;DHT22;31507;51.494;7.518;2023-02-22T06:04:59;2.10;99.90
45807;DHT22;31507;51.494;7.518;2023-02-22T06:07:24;2.10;99.90
45807;DHT22;31507;51.494;7.518;2023-02-22T06:09:51;2.10;99.90
45807;DHT22;31507;51.494;7.518;2023-02-22T06:12:17;2.10;99.90
45807;DHT22;31507;51.494;7.518;2023-02-22T06:14:43;2.10;99.90
45807;DHT22;31507;51.494;7.518;2023-02-22T06:17:11;2.00;99.90
45807;DHT22;31507;51.494;7.518;2023-02-22T06:19:36;2.00;99.90
45807;DHT22;31507;51.494;7.518;2023-02-22T06:22:02;2.00;99.90
45807;DHT22;31507;51.494;7.518;2023-02-22T06:24:27;2.10;99.90
45807;DHT22;31507;51.494;7.518;2023-02-22T06:26:54;2.10;99.90
45807;DHT22;31507;51.494;7.518;2023-02-22T06:29:21;2.10;99.90
45807;DHT22;31507;51.494;7.518;2023-02-22T06:31:47;2.10;99.90
45807;DHT22;31507;51.494;7.518;2023-02-22T06:34:12;2.10;99.90
45807;DHT22;31507;51.494;7.518;2023-02-22T06:36:38;2.20;99.90
45807;DHT22;31507;51.494;7.518;2023-02-22T06:39:03;2.20;99.90
45807;DHT22;31507;51.494;7.518;2023-02-22T06:41:29;2.20;99.90
45807;DHT22;31507;51.494;7.518;2023-02-22T06:43:54;2.20;99.90
45807;DHT22;31507;51.494;7.518;2023-02-22T06:46:19;2.20;99.90
45807;DHT22;31507;51.494;7.518;2023-02-22T06:48:46;2.10;99.90
45807;DHT22;31507;51.494;7.518;2023-02-22T06:51:11;2.10;99.90
45807;DHT22;31507;51.494;7.518;2023-02-22T06:53:37;2.10;99.90
45807;DHT22;31507;51.494;7.518;2023-02-22T06:56:02;2.10;99.90
45807;DHT22;31507;51.494;7.518;2023-02-22T06:58:28;2.10;99.90
45807;DHT22;31507;51.494;7.518;2023-02-22T07:00:53;2.20;99.90
45807;DHT22;31507;51.494;7.518;2023-02-22T07:03:19;2.10;99.90
45807;DHT22;31507;51.494;7.518;2023-02-22T07:05:44;2.20;99.90
45807;DHT22;31507;51.494;7.518;2023-02-22T07:08:10;2.20;99.90
45807;DHT22;31507;51.494;7.518;2023-02-22T07:10:36;2.20;99.90
45807;DHT22;31507;51.494;7.518;2023-02-22T07:13:02;2.20;99.90
45807;DHT22;31507;51.494;7.518;2023-02-22T07:15:28;2.20;99.90
45807;DHT22;31507;51.494;7.518;2023-02-22T07:17:54;2.20;99.90
45807;DHT22;31507;51.494;7.518;2023-02-22T07:20:21;2.20;99.90
45807;DHT22;31507;51.494;7.518;2023-02-22T07:22:47;2.30;99.90
45807;DHT22;31507;51.494;7.518;2023-02-22T07:25:13;2.30;99.90
45807;DHT22;31507;51.494;7.518;2023-02-22T07:27:39;2.40;99.90
45807;DHT22;31507;51.494;7.518;2023-02-22T07:30:06;2.50;99.90
45807;DHT22;31507;51.494;7.518;2023-02-22T07:32:32;2.60;99.90
45807;DHT22;31507;51.494;7.518;2023-02-22T07:34:58;2.70;99.90
45807;DHT22;31507;51.494;7.518;2023-02-22T07:37:24;2.80;99.90
45807;DHT22;31507;51.494;7.518;2023-02-22T07:39:49;2.90;99.90
45807;DHT22;31507;51.494;7.518;2023-02-22T07:42:15;3.00;99.90
45807;DHT22;31507;51.494;7.518;2023-02-22T07:44:40;3.10;99.90
45807;DHT22;31507;51.494;7.518;2023-02-22T07:47:06;3.30;99.90
45807;DHT22;31507;51.494;7.518;2023-02-22T07:49:33;3.40;99.90
45807;DHT22;31507;51.494;7.518;2023-02-22T07:51:58;3.50;99.90
45807;DHT22;31507;51.494;7.518;2023-02-22T07:54:24;3.70;99.90
45807;DHT22;31507;51.494;7.518;2023-02-22T07:56:49;3.80;99.90
45807;DHT22;31507;51.494;7.518;2023-02-22T07:59:15;3.90;99.90
45807;DHT22;31507;51.494;7.518;2023-02-22T08:01:40;4.10;99.90
45807;DHT22;31507;51.494;7.518;2023-02-22T08:04:06;4.30;99.90
45807;DHT22;31507;51.494;7.518;2023-02-22T08:06:32;4.50;99.90
45807;DHT22;31507;51.494;7.518;2023-02-22T08:08:57;4.80;99.90
45807;DHT22;31507;51.494;7.518;2023-02-22T08:11:23;5.00;99.90
45807;DHT22;31507;51.494;7.518;2023-02-22T08:13:49;5.20;99.90
45807;DHT22;31507;51.494;7.518;2023-02-22T08:16:14;5.40;99.90
45807;DHT22;31507;51.494;7.518;2023-02-22T08:18:40;5.60;99.90
45807;DHT22;31507;51.494;7.518;2023-02-22T08:21:05;5.80;99.90
45807;DHT22;31507;51.494;7.518;2023-02-22T08:23:31;5.90;99.90
45807;DHT22;31507;51.494;7.518;2023-02-22T08:26:02;6.10;99.90
45807;DHT22;31507;51.494;7.518;2023-02-22T08:28:28;6.20;99.90
45807;DHT22;31507;51.494;7.518;2023-02-22T08:30:53;6.40;99.90
45807;DHT22;31507;51.494;7.518;2023-02-22T08:33:19;6.60;99.90
45807;DHT22;31507;51.494;7.518;2023-02-22T08:35:45;6.80;99.90
45807;DHT22;31507;51.494;7.518;2023-02-22T08:38:15;7.00;99.90
45807;DHT22;31507;51.494;7.518;2023-02-22T08:40:41;7.20;99.90
45807;DHT22;31507;51.494;7.518;2023-02-22T08:43:06;7.50;99.90
45807;DHT22;31507;51.494;7.518;2023-02-22T08:45:32;7.80;99.90
45807;DHT22;31507;51.494;7.518;2023-02-22T08:47:57;8.20;99.90
45807;DHT22;31507;51.494;7.518;2023-02-22T08:50:32;8.50;99.90
45807;DHT22;31507;51.494;7.518;2023-02-22T08:52:59;8.80;99.90
45807;DHT22;31507;51.494;7.518;2023-02-22T08:55:30;9.30;99.90
45807;DHT22;31507;51.494;7.518;2023-02-22T08:57:56;9.60;99.90
45807;DHT22;31507;51.494;7.518;2023-02-22T09:00:22;9.90;99.90
45807;DHT22;31507;51.494;7.518;2023-02-22T09:02:51;10.20;99.90
45807;DHT22;31507;51.494;7.518;2023-02-22T09:05:16;10.40;99.90
45807;DHT22;31507;51.494;7.518;2023-02-22T09:07:42;10.70;99.90
45807;DHT22;31507;51.494;7.518;2023-02-22T09:10:19;11.10;99.90
45807;DHT22;31507;51.494;7.518;2023-02-22T09:12:44;11.50;99.90
45807;DHT22;31507;51.494;7.518;2023-02-22T09:15:10;12.10;99.90
45807;DHT22;31507;51.494;7.518;2023-02-22T09:17:36;12.30;99.90
45807;DHT22;31507;51.494;7.518;2023-02-22T09:20:02;12.60;99.90
45807;DHT22;31507;51.494;7.518;2023-02-22T09:22:27;12.80;99.90
45807;DHT22;31507;51.494;7.518;2023-02-22T09:24:53;13.10;99.90
45807;DHT22;31507;51.494;7.518;2023-02-22T09:27:18;13.20;99.90
45807;DHT22;31507;51.494;7.518;2023-02-22T09:29:46;13.50;99.90
45807;DHT22;31507;51.494;7.518;2023-02-22T09:32:12;13.50;99.90
45807;DHT22;31507;51.494;7.518;2023-02-22T09:34:37;13.40;99.90
45807;DHT22;31507;51.494;7.518;2023-02-22T09:37:10;13.50;99.90
45807;DHT22;31507;51.494;7.518;2023-02-22T09:39:35;13.60;99.90
45807;DHT22;31507;51.494;7.518;2023-02-22T09:42:09;13.60;99.90
45807;DHT22;31507;51.494;7.518;2023-02-22T09:47:07;13.80;99.90
45807;DHT22;31507;51.494;7.518;2023-02-22T09:49:39;13.80;99.90
45807;DHT22;31507;51.494;7.518;2023-02-22T09:52:09;13.80;99.90
45807;DHT22;31507;51.494;7.518;2023-02-22T09:54:43;13.90;99.90
45807;DHT22;31507;51.494;7.518;2023-02-22T09:57:11;14.00;99.90
45807;DHT22;31507;51.494;7.518;2023-02-22T09:59:52;14.10;99.90
45807;DHT22;31507;51.494;7.518;2023-02-22T10:02:28;14.30;99.90
45807;DHT22;31507;51.494;7.518;2023-02-22T10:07:28;14.30;99.90
45807;DHT22;31507;51.494;7.518;2023-02-22T10:09:55;14.30;99.90
45807;DHT22;31507;51.494;7.518;2023-02-22T10:12:28;14.40;99.90
45807;DHT22;31507;51.494;7.518;2023-02-22T10:20:32;14.40;99.90
45807;DHT22;31507;51.494;7.518;2023-02-22T10:23:07;14.70;99.90
45807;DHT22;31507;51.494;7.518;2023-02-22T10:25:35;14.80;99.90
45807;DHT22;31507;51.494;7.518;2023-02-22T10:28:08;14.80;99.90
45807;DHT22;31507;51.494;7.518;2023-02-22T10:30:37;14.80;99.90
45807;DHT22;31507;51.494;7.518;2023-02-22T10:35:32;14.80;99.00
45807;DHT22;31507;51.494;7.518;2023-02-22T10:38:00;15.00;98.60
45807;DHT22;31507;51.494;7.518;2023-02-22T10:40:26;15.20;98.50
45807;DHT22;31507;51.494;7.518;2023-02-22T10:42:59;15.20;97.10
45807;DHT22;31507;51.494;7.518;2023-02-22T10:45:27;15.00;98.70
45807;DHT22;31507;51.494;7.518;2023-02-22T10:47:54;14.90;99.60
45807;DHT22;31507;51.494;7.518;2023-02-22T10:50:20;14.80;98.80
45807;DHT22;31507;51.494;7.518;2023-02-22T10:52:46;14.90;99.00
45807;DHT22;31507;51.494;7.518;2023-02-22T10:55:13;15.00;98.30
45807;DHT22;31507;51.494;7.518;2023-02-22T10:57:38;15.00;99.10
45807;DHT22;31507;51.494;7.518;2023-02-22T11:02:51;15.00;99.90
45807;DHT22;31507;51.494;7.518;2023-02-22T11:05:28;14.90;99.90
45807;DHT22;31507;51.494;7.518;2023-02-22T11:08:13;15.10;99.50
45807;DHT22;31507;51.494;7.518;2023-02-22T11:10:39;15.20;99.90
45807;DHT22;31507;51.494;7.518;2023-02-22T11:15:53;15.40;99.50
45807;DHT22;31507;51.494;7.518;2023-02-22T11:18:23;15.50;98.80
45807;DHT22;31507;51.494;7.518;2023-02-22T11:20:49;15.80;99.70
45807;DHT22;31507;51.494;7.518;2023-02-22T11:23:23;16.10;94.60
45807;DHT22;31507;51.494;7.518;2023-02-22T11:25:48;16.10;91.90
45807;DHT22;31507;51.494;7.518;2023-02-22T11:30:41;16.10;95.90
45807;DHT22;31507;51.494;7.518;2023-02-22T11:35:51;16.30;93.40
45807;DHT22;31507;51.494;7.518;2023-02-22T11:40:42;16.20;93.20
45807;DHT22;31507;51.494;7.518;2023-02-22T11:43:12;16.30;92.70
45807;DHT22;31507;51.494;7.518;2023-02-22T11:45:38;16.40;92.50
45807;DHT22;31507;51.494;7.518;2023-02-22T11:48:04;16.60;91.20
45807;DHT22;31507;51.494;7.518;2023-02-22T11:50:38;16.50;91.70
45807;DHT22;31507;51.494;7.518;2023-02-22T12:01:10;16.90;89.40
45807;DHT22;31507;51.494;7.518;2023-02-22T12:06:12;17.10;85.40
45807;DHT22;31507;51.494;7.518;2023-02-22T12:13:41;17.30;88.20
45807;DHT22;31507;51.494;7.518;2023-02-22T12:16:25;17.40;83.40
45807;DHT22;31507;51.494;7.518;2023-02-22T12:21:19;17.30;81.90
45807;DHT22;31507;51.494;7.518;2023-02-22T12:23:52;17.10;85.00
45807;DHT22;31507;51.494;7.518;2023-02-22T12:26:26;17.10;86.70
45807;DHT22;31507;51.494;7.518;2023-02-22T12:28:55;17.20;86.40
45807;DHT22;31507;51.494;7.518;2023-02-22T12:31:26;17.20;91.20
45807;DHT22;31507;51.494;7.518;2023-02-22T12:33:57;17.00;85.80
45807;DHT22;31507;51.494;7.518;2023-02-22T12:36:27;17.00;90.10
45807;DHT22;31507;51.494;7.518;2023-02-22T12:38:58;17.10;88.40
45807;DHT22;31507;51.494;7.518;2023-02-22T12:41:33;17.10;86.00
45807;DHT22;31507;51.494;7.518;2023-02-22T12:44:07;17.10;86.40
45807;DHT22;31507;51.494;7.518;2023-02-22T12:46:36;17.30;90.00
45807;DHT22;31507;51.494;7.518;2023-02-22T12:56:49;16.80;89.20
45807;DHT22;31507;51.494;7.518;2023-02-22T12:59:19;16.90;85.80
45807;DHT22;31507;51.494;7.518;2023-02-22T13:01:49;16.90;84.30
45807;DHT22;31507;51.494;7.518;2023-02-22T13:04:15;17.10;84.90
45807;DHT22;31507;51.494;7.518;2023-02-22T13:11:42;17.10;83.90
45807;DHT22;31507;51.494;7.518;2023-02-22T13:17:03;17.40;83.60
45807;DHT22;31507;51.494;7.518;2023-02-22T13:21:59;17.50;80.30
45807;DHT22;31507;51.494;7.518;2023-02-22T13:27:17;17.40;75.90
45807;DHT22;31507;51.494;7.518;2023-02-22T13:29:46;17.20;76.30
45807;DHT22;31507;51.494;7.518;2023-02-22T13:32:16;17.10;77.20
45807;DHT22;31507;51.494;7.518;2023-02-22T13:37:20;16.90;75.30
45807;DHT22;31507;51.494;7.518;2023-02-22T13:45:25;16.90;75.60
45807;DHT22;31507;51.494;7.518;2023-02-22T13:53:20;17.00;74.00
45807;DHT22;31507;51.494;7.518;2023-02-22T13:55:51;17.00;75.90
45807;DHT22;31507;51.494;7.518;2023-02-22T13:58:18;17.00;74.30
45807;DHT22;31507;51.494;7.518;2023-02-22T14:13:08;16.40;74.30
45807;DHT22;31507;51.494;7.518;2023-02-22T14:15:34;16.40;74.00
45807;DHT22;31507;51.494;7.518;2023-02-22T14:18:01;16.40;77.70
45807;DHT22;31507;51.494;7.518;2023-02-22T14:20:34;16.40;74.90
45807;DHT22;31507;51.494;7.518;2023-02-22T14:25:45;16.10;76.20
45807;DHT22;31507;51.494;7.518;2023-02-22T14:31:11;15.60;76.30
45807;DHT22;31507;51.494;7.518;2023-02-22T14:36:23;15.40;77.50
45807;DHT22;31507;51.494;7.518;2023-02-22T14:38:50;15.30;79.00
45807;DHT22;31507;51.494;7.518;2023-02-22T14:41:23;15.20;79.80
45807;DHT22;31507;51.494;7.518;2023-02-22T14:43:52;15.20;80.90
45807;DHT22;31507;51.494;7.518;2023-02-22T14:46:19;15.20;79.80
45807;DHT22;31507;51.494;7.518;2023-02-22T14:48:45;15.10;80.40
45807;DHT22;31507;51.494;7.518;2023-02-22T14:51:19;15.10;81.20
45807;DHT22;31507;51.494;7.518;2023-02-22T14:53:45;14.90;81.00
45807;DHT22;31507;51.494;7.518;2023-02-22T14:58:48;14.90;81.50
45807;DHT22;31507;51.494;7.518;2023-02-22T15:01:23;14.90;82.00
45807;DHT22;31507;51.494;7.518;2023-02-22T15:03:50;14.90;82.90
45807;DHT22;31507;51.494;7.518;2023-02-22T15:06:16;14.90;82.70
45807;DHT22;31507;51.494;7.518;2023-02-22T15:08:43;15.00;83.60
45807;DHT22;31507;51.494;7.518;2023-02-22T15:11:23;14.90;83.20
45807;DHT22;31507;51.494;7.518;2023-02-22T15:13:50;15.00;83.30
45807;DHT22;31507;51.494;7.518;2023-02-22T15:16:16;15.00;84.90
45807;DHT22;31507;51.494;7.518;2023-02-22T15:18:42;15.10;84.30
45807;DHT22;31507;51.494;7.518;2023-02-22T15:21:10;15.10;84.20
45807;DHT22;31507;51.494;7.518;2023-02-22T15:23:46;15.10;84.00
45807;DHT22;31507;51.494;7.518;2023-02-22T15:26:17;15.10;83.30
45807;DHT22;31507;51.494;7.518;2023-02-22T15:28:43;15.10;82.20
45807;DHT22;31507;51.494;7.518;2023-02-22T15:31:16;15.00;83.30
45807;DHT22;31507;51.494;7.518;2023-02-22T15:33:42;15.00;82.80
45807;DHT22;31507;51.494;7.518;2023-02-22T15:36:11;15.00;82.90
45807;DHT22;31507;51.494;7.518;2023-02-22T15:38:37;15.00;82.70
45807;DHT22;31507;51.494;7.518;2023-02-22T15:41:04;14.90;83.00
45807;DHT22;31507;51.494;7.518;2023-02-22T15:43:29;14.80;83.00
45807;DHT22;31507;51.494;7.518;2023-02-22T15:45:57;14.80;82.90
45807;DHT22;31507;51.494;7.518;2023-02-22T15:50:29;14.60;84.00
